sensor_id;sensor_type;location;lat;lon;timestamp;pressure;altitude;pressure_sealevel;temperature;humidity
3132;BME280;62090;52.330;9.104;2024-01-25T00:02:07;101779.72;;;9.53;87.80
3132;BME280;62090;52.330;9.104;2024-01-25T00:04:38;101804.84;;;9.64;87.85
3132;BME280;62090;52.330;9.104;2024-01-25T00:07:08;101810.94;;;9.68;88.05
3132;BME280;62090;52.330;9.104;2024-01-25T00:09:39;101781.19;;;9.48;88.36
3132;BME280;62090;52.330;9.104;2024-01-25T00:12:11;101814.31;;;9.67;88.09
3132;BME280;62090;52.330;9.104;2024-01-25T00:14:42;101824.50;;;9.67;88.49
3132;BME280;62090;52.330;9.104;2024-01-25T00:17:12;101818.72;;;9.71;87.90
3132;BME280;62090;52.330;9.104;2024-01-25T00:19:42;101784.47;;;9.45;88.09
3132;BME280;62090;52.330;9.104;2024-01-25T00:22:12;101815.19;;;9.67;88.47
3132;BME280;62090;52.330;9.104;2024-01-25T00:24:43;101786.63;;;9.55;88.30
3132;BME280;62090;52.330;9.104;2024-01-25T00:27:16;101817.94;;;9.72;88.14
3132;BME280;62090;52.330;9.104;2024-01-25T00:29:46;101823.53;;;9.65;87.79
3132;BME280;62090;52.330;9.104;2024-01-25T00:32:16;101823.47;;;9.63;88.23
3132;BME280;62090;52.330;9.104;2024-01-25T00:34:47;101757.69;;;9.16;88.62
3132;BME280;62090;52.330;9.104;2024-01-25T00:37:18;101836.84;;;9.59;89.21
3132;BME280;62090;52.330;9.104;2024-01-25T00:39:49;101776.16;;;9.30;88.67
3132;BME280;62090;52.330;9.104;2024-01-25T00:42:23;101825.88;;;9.60;88.98
3132;BME280;62090;52.330;9.104;2024-01-25T00:44:54;101808.38;;;9.49;88.97
3132;BME280;62090;52.330;9.104;2024-01-25T00:47:25;101825.50;;;9.53;89.02
3132;BME280;62090;52.330;9.104;2024-01-25T00:49:56;101845.47;;;9.63;89.04
3132;BME280;62090;52.330;9.104;2024-01-25T00:52:27;101831.56;;;9.55;88.39
3132;BME280;62090;52.330;9.104;2024-01-25T00:54:58;101778.19;;;9.19;89.05
3132;BME280;62090;52.330;9.104;2024-01-25T00:57:31;101828.84;;;9.52;89.27
3132;BME280;62090;52.330;9.104;2024-01-25T01:00:02;101802.16;;;9.24;89.79
3132;BME280;62090;52.330;9.104;2024-01-25T01:02:36;101816.38;;;9.39;89.55
3132;BME280;62090;52.330;9.104;2024-01-25T01:05:07;101835.34;;;9.45;89.67
3132;BME280;62090;52.330;9.104;2024-01-25T01:07:39;101831.34;;;9.50;89.27
3132;BME280;62090;52.330;9.104;2024-01-25T01:10:10;101798.78;;;9.25;89.57
3132;BME280;62090;52.330;9.104;2024-01-25T01:12:44;101836.34;;;9.49;89.81
3132;BME280;62090;52.330;9.104;2024-01-25T01:15:14;101845.66;;;9.48;90.10
3132;BME280;62090;52.330;9.104;2024-01-25T01:17:45;101835.16;;;9.41;89.42
3132;BME280;62090;52.330;9.104;2024-01-25T01:20:15;101847.03;;;9.42;89.64
3132;BME280;62090;52.330;9.104;2024-01-25T01:22:45;101848.78;;;9.43;90.14
3132;BME280;62090;52.330;9.104;2024-01-25T01:25:16;101840.28;;;9.42;90.14
3132;BME280;62090;52.330;9.104;2024-01-25T01:27:49;101847.78;;;9.39;89.94
3132;BME280;62090;52.330;9.104;2024-01-25T01:30:19;101842.81;;;9.42;89.88
3132;BME280;62090;52.330;9.104;2024-01-25T01:32:49;101832.09;;;9.30;89.95
3132;BME280;62090;52.330;9.104;2024-01-25T01:35:19;101837.59;;;9.39;90.34
3132;BME280;62090;52.330;9.104;2024-01-25T01:37:50;101828.16;;;9.37;89.10
3132;BME280;62090;52.330;9.104;2024-01-25T01:40:20;101845.44;;;9.44;89.41
3132;BME280;62090;52.330;9.104;2024-01-25T01:42:58;101829.78;;;9.35;89.63
3132;BME280;62090;52.330;9.104;2024-01-25T01:45:29;101766.84;;;8.95;89.81
3132;BME280;62090;52.330;9.104;2024-01-25T01:47:59;101812.63;;;9.13;90.01
3132;BME280;62090;52.330;9.104;2024-01-25T01:50:30;101831.59;;;9.19;90.24
3132;BME280;62090;52.330;9.104;2024-01-25T01:53:00;101847.94;;;9.24;90.57
3132;BME280;62090;52.330;9.104;2024-01-25T01:55:31;101830.34;;;9.11;91.07
3132;BME280;62090;52.330;9.104;2024-01-25T01:58:04;101838.19;;;9.16;90.91
3132;BME280;62090;52.330;9.104;2024-01-25T02:00:34;101821.69;;;8.90;91.37
3132;BME280;62090;52.330;9.104;2024-01-25T02:03:06;101845.25;;;9.04;91.67
3132;BME280;62090;52.330;9.104;2024-01-25T02:05:36;101853.28;;;8.95;92.07
3132;BME280;62090;52.330;9.104;2024-01-25T02:08:07;101840.28;;;8.89;92.24
3132;BME280;62090;52.330;9.104;2024-01-25T02:10:37;101836.84;;;8.88;92.80
3132;BME280;62090;52.330;9.104;2024-01-25T02:13:10;101860.91;;;8.95;92.33
3132;BME280;62090;52.330;9.104;2024-01-25T02:15:40;101863.31;;;8.92;92.58
3132;BME280;62090;52.330;9.104;2024-01-25T02:18:10;101872.53;;;8.90;92.73
3132;BME280;62090;52.330;9.104;2024-01-25T02:20:42;101870.78;;;8.89;92.41
3132;BME280;62090;52.330;9.104;2024-01-25T02:23:14;101877.53;;;8.88;92.63
3132;BME280;62090;52.330;9.104;2024-01-25T02:25:45;101878.25;;;8.86;92.41
3132;BME280;62090;52.330;9.104;2024-01-25T02:28:15;101895.63;;;8.95;92.34
3132;BME280;62090;52.330;9.104;2024-01-25T02:30:45;101880.31;;;8.93;92.19
3132;BME280;62090;52.330;9.104;2024-01-25T02:33:15;101879.59;;;8.96;92.18
3132;BME280;62090;52.330;9.104;2024-01-25T02:35:45;101852.09;;;8.71;92.55
3132;BME280;62090;52.330;9.104;2024-01-25T02:38:19;101842.63;;;8.68;93.06
3132;BME280;62090;52.330;9.104;2024-01-25T02:40:50;101893.50;;;8.86;93.05
3132;BME280;62090;52.330;9.104;2024-01-25T02:43:21;101881.16;;;8.76;93.24
3132;BME280;62090;52.330;9.104;2024-01-25T02:45:51;101882.38;;;8.84;93.82
3132;BME280;62090;52.330;9.104;2024-01-25T02:48:21;101882.25;;;8.81;93.78
3132;BME280;62090;52.330;9.104;2024-01-25T02:50:51;101814.13;;;8.40;93.87
3132;BME280;62090;52.330;9.104;2024-01-25T02:53:21;101882.38;;;8.84;94.03
3132;BME280;62090;52.330;9.104;2024-01-25T02:55:51;101875.91;;;8.73;94.13
3132;BME280;62090;52.330;9.104;2024-01-25T02:58:21;101857.66;;;8.64;94.09
3132;BME280;62090;52.330;9.104;2024-01-25T03:00:52;101880.84;;;8.70;94.47
3132;BME280;62090;52.330;9.104;2024-01-25T03:03:22;101867.06;;;8.48;95.30
3132;BME280;62090;52.330;9.104;2024-01-25T03:05:52;101886.63;;;8.67;94.97
3132;BME280;62090;52.330;9.104;2024-01-25T03:08:25;101876.31;;;8.64;94.96
3132;BME280;62090;52.330;9.104;2024-01-25T03:10:55;101868.38;;;8.58;95.26
3132;BME280;62090;52.330;9.104;2024-01-25T03:13:26;101858.88;;;8.54;95.57
3132;BME280;62090;52.330;9.104;2024-01-25T03:15:56;101868.06;;;8.52;95.90
3132;BME280;62090;52.330;9.104;2024-01-25T03:18:26;101881.75;;;8.54;96.10
3132;BME280;62090;52.330;9.104;2024-01-25T03:20:56;101899.53;;;8.54;96.39
3132;BME280;62090;52.330;9.104;2024-01-25T03:23:29;101897.94;;;8.56;96.30
3132;BME280;62090;52.330;9.104;2024-01-25T03:26:01;101898.50;;;8.51;96.14
3132;BME280;62090;52.330;9.104;2024-01-25T03:28:31;101898.09;;;8.59;95.72
3132;BME280;62090;52.330;9.104;2024-01-25T03:31:01;101902.28;;;8.59;95.79
3132;BME280;62090;52.330;9.104;2024-01-25T03:33:32;101894.44;;;8.54;96.08
3132;BME280;62090;52.330;9.104;2024-01-25T03:36:02;101908.25;;;8.59;96.01
3132;BME280;62090;52.330;9.104;2024-01-25T03:38:35;101888.41;;;8.36;96.16
3132;BME280;62090;52.330;9.104;2024-01-25T03:41:05;101921.66;;;8.57;96.42
3132;BME280;62090;52.330;9.104;2024-01-25T03:43:36;101935.41;;;8.60;96.29
3132;BME280;62090;52.330;9.104;2024-01-25T03:46:10;101889.03;;;8.32;95.86
3132;BME280;62090;52.330;9.104;2024-01-25T03:48:41;101919.44;;;8.46;96.07
3132;BME280;62090;52.330;9.104;2024-01-25T03:51:11;101939.75;;;8.63;96.43
3132;BME280;62090;52.330;9.104;2024-01-25T03:53:44;101932.00;;;8.60;95.58
3132;BME280;62090;52.330;9.104;2024-01-25T03:56:15;101937.84;;;8.59;95.88
3132;BME280;62090;52.330;9.104;2024-01-25T03:58:45;101931.53;;;8.51;95.84
3132;BME280;62090;52.330;9.104;2024-01-25T04:01:16;101907.34;;;8.26;95.17
3132;BME280;62090;52.330;9.104;2024-01-25T04:03:47;101941.13;;;8.56;95.23
3132;BME280;62090;52.330;9.104;2024-01-25T04:06:17;101930.09;;;8.39;96.01
3132;BME280;62090;52.330;9.104;2024-01-25T04:08:50;101925.72;;;8.37;95.59
3132;BME280;62090;52.330;9.104;2024-01-25T04:11:20;101929.31;;;8.26;96.07
3132;BME280;62090;52.330;9.104;2024-01-25T04:13:53;101973.59;;;8.45;96.63
3132;BME280;62090;52.330;9.104;2024-01-25T04:16:23;101934.81;;;8.17;96.43
3132;BME280;62090;52.330;9.104;2024-01-25T04:18:53;101881.69;;;7.89;96.13
3132;BME280;62090;52.330;9.104;2024-01-25T04:21:23;101976.13;;;8.45;96.19
3132;BME280;62090;52.330;9.104;2024-01-25T04:23:56;101975.41;;;8.48;96.07
3132;BME280;62090;52.330;9.104;2024-01-25T04:26:26;101941.44;;;8.30;95.87
3132;BME280;62090;52.330;9.104;2024-01-25T04:28:56;101972.78;;;8.46;95.70
3132;BME280;62090;52.330;9.104;2024-01-25T04:31:26;101975.25;;;8.45;95.82
3132;BME280;62090;52.330;9.104;2024-01-25T04:33:57;101960.56;;;8.39;96.03
3132;BME280;62090;52.330;9.104;2024-01-25T04:36:27;101911.63;;;8.11;95.77
3132;BME280;62090;52.330;9.104;2024-01-25T04:39:00;101947.16;;;8.42;96.18
3132;BME280;62090;52.330;9.104;2024-01-25T04:41:30;101937.13;;;8.29;95.67
3132;BME280;62090;52.330;9.104;2024-01-25T04:44:00;101929.09;;;8.21;96.11
3132;BME280;62090;52.330;9.104;2024-01-25T04:46:31;101976.41;;;8.35;96.89
3132;BME280;62090;52.330;9.104;2024-01-25T04:49:04;101955.03;;;8.16;97.08
3132;BME280;62090;52.330;9.104;2024-01-25T04:51:34;101980.72;;;8.36;96.95
3132;BME280;62090;52.330;9.104;2024-01-25T04:54:07;101996.47;;;8.45;95.94
3132;BME280;62090;52.330;9.104;2024-01-25T04:56:39;101992.00;;;8.41;95.96
3132;BME280;62090;52.330;9.104;2024-01-25T04:59:10;101997.06;;;8.41;96.38
3132;BME280;62090;52.330;9.104;2024-01-25T05:01:40;101984.31;;;8.40;96.00
3132;BME280;62090;52.330;9.104;2024-01-25T05:04:11;102014.78;;;8.40;96.11
3132;BME280;62090;52.330;9.104;2024-01-25T05:06:41;101998.03;;;8.43;96.58
3132;BME280;62090;52.330;9.104;2024-01-25T05:09:14;102018.25;;;8.42;96.72
3132;BME280;62090;52.330;9.104;2024-01-25T05:11:44;102016.81;;;8.31;96.08
3132;BME280;62090;52.330;9.104;2024-01-25T05:14:15;101987.28;;;8.02;97.03
3132;BME280;62090;52.330;9.104;2024-01-25T05:16:45;102013.41;;;8.30;97.17
3132;BME280;62090;52.330;9.104;2024-01-25T05:19:15;102007.16;;;8.25;97.11
3132;BME280;62090;52.330;9.104;2024-01-25T05:21:45;101991.63;;;8.19;96.88
3132;BME280;62090;52.330;9.104;2024-01-25T05:24:18;101941.91;;;7.92;96.98
3132;BME280;62090;52.330;9.104;2024-01-25T05:26:48;101998.25;;;8.32;96.23
3132;BME280;62090;52.330;9.104;2024-01-25T05:29:18;101968.91;;;8.06;96.29
3132;BME280;62090;52.330;9.104;2024-01-25T05:31:49;102004.38;;;8.21;96.91
3132;BME280;62090;52.330;9.104;2024-01-25T05:34:19;102028.34;;;8.26;97.25
3132;BME280;62090;52.330;9.104;2024-01-25T05:36:49;101975.72;;;8.07;97.42
3132;BME280;62090;52.330;9.104;2024-01-25T05:39:22;101998.81;;;8.12;97.62
3132;BME280;62090;52.330;9.104;2024-01-25T05:41:52;102032.22;;;8.34;97.95
3132;BME280;62090;52.330;9.104;2024-01-25T05:44:22;102025.31;;;8.31;97.66
3132;BME280;62090;52.330;9.104;2024-01-25T05:46:52;101996.97;;;8.09;98.11
3132;BME280;62090;52.330;9.104;2024-01-25T05:49:23;102019.94;;;8.27;97.96
3132;BME280;62090;52.330;9.104;2024-01-25T05:51:53;101973.47;;;7.97;97.81
3132;BME280;62090;52.330;9.104;2024-01-25T05:54:26;102031.34;;;8.33;98.13
3132;BME280;62090;52.330;9.104;2024-01-25T05:56:56;101975.28;;;7.99;97.90
3132;BME280;62090;52.330;9.104;2024-01-25T05:59:26;102046.69;;;8.35;98.02
3132;BME280;62090;52.330;9.104;2024-01-25T06:01:56;102058.50;;;8.34;97.47
3132;BME280;62090;52.330;9.104;2024-01-25T06:04:27;102052.09;;;8.26;97.71
3132;BME280;62090;52.330;9.104;2024-01-25T06:06:57;102047.63;;;8.22;97.94
3132;BME280;62090;52.330;9.104;2024-01-25T06:09:30;102048.75;;;8.27;98.58
3132;BME280;62090;52.330;9.104;2024-01-25T06:12:01;102022.84;;;8.02;98.64
3132;BME280;62090;52.330;9.104;2024-01-25T06:14:31;102051.50;;;8.16;99.13
3132;BME280;62090;52.330;9.104;2024-01-25T06:17:02;102014.25;;;8.00;99.31
3132;BME280;62090;52.330;9.104;2024-01-25T06:19:33;101985.25;;;7.80;98.85
3132;BME280;62090;52.330;9.104;2024-01-25T06:22:01;102045.00;;;8.21;99.17
3132;BME280;62090;52.330;9.104;2024-01-25T06:24:34;102009.88;;;7.83;98.92
3132;BME280;62090;52.330;9.104;2024-01-25T06:27:05;102050.09;;;8.21;99.71
3132;BME280;62090;52.330;9.104;2024-01-25T06:29:35;102015.13;;;8.00;99.35
3132;BME280;62090;52.330;9.104;2024-01-25T06:32:06;102000.09;;;7.89;99.70
3132;BME280;62090;52.330;9.104;2024-01-25T06:34:42;102026.69;;;7.95;99.85
3132;BME280;62090;52.330;9.104;2024-01-25T06:37:12;102075.66;;;8.24;100.00
3132;BME280;62090;52.330;9.104;2024-01-25T06:39:48;102084.50;;;8.30;99.47
3132;BME280;62090;52.330;9.104;2024-01-25T06:42:18;102090.28;;;8.28;99.06
3132;BME280;62090;52.330;9.104;2024-01-25T06:44:49;102090.56;;;8.18;99.79
3132;BME280;62090;52.330;9.104;2024-01-25T06:47:19;102065.19;;;8.03;99.61
3132;BME280;62090;52.330;9.104;2024-01-25T06:49:50;102091.25;;;8.15;99.50
3132;BME280;62090;52.330;9.104;2024-01-25T06:52:20;102103.66;;;8.25;99.55
3132;BME280;62090;52.330;9.104;2024-01-25T06:54:55;102111.66;;;8.17;99.96
3132;BME280;62090;52.330;9.104;2024-01-25T06:57:25;102108.09;;;8.13;100.00
3132;BME280;62090;52.330;9.104;2024-01-25T06:59:55;102109.03;;;8.15;100.00
3132;BME280;62090;52.330;9.104;2024-01-25T07:02:26;102120.16;;;8.17;100.00
3132;BME280;62090;52.330;9.104;2024-01-25T07:04:58;102081.50;;;7.92;100.00
3132;BME280;62090;52.330;9.104;2024-01-25T07:07:29;102089.34;;;7.96;100.00
3132;BME280;62090;52.330;9.104;2024-01-25T07:10:03;102108.34;;;8.18;100.00
3132;BME280;62090;52.330;9.104;2024-01-25T07:12:33;102105.69;;;8.16;100.00
3132;BME280;62090;52.330;9.104;2024-01-25T07:15:04;102109.84;;;8.14;100.00
3132;BME280;62090;52.330;9.104;2024-01-25T07:17:35;102104.13;;;8.18;100.00
3132;BME280;62090;52.330;9.104;2024-01-25T07:20:07;102082.00;;;8.01;100.00
3132;BME280;62090;52.330;9.104;2024-01-25T07:22:38;102097.72;;;8.10;100.00
3132;BME280;62090;52.330;9.104;2024-01-25T07:25:10;102102.22;;;8.14;100.00
3132;BME280;62090;52.330;9.104;2024-01-25T07:27:43;102103.78;;;8.12;100.00
3132;BME280;62090;52.330;9.104;2024-01-25T07:30:15;102088.72;;;8.00;100.00
3132;BME280;62090;52.330;9.104;2024-01-25T07:32:45;102102.16;;;7.98;100.00
3132;BME280;62090;52.330;9.104;2024-01-25T07:35:17;102083.69;;;7.86;100.00
3132;BME280;62090;52.330;9.104;2024-01-25T07:37:47;102100.47;;;7.84;100.00
3132;BME280;62090;52.330;9.104;2024-01-25T07:40:20;102062.94;;;7.63;100.00
3132;BME280;62090;52.330;9.104;2024-01-25T07:42:50;102102.84;;;7.81;100.00
3132;BME280;62090;52.330;9.104;2024-01-25T07:45:20;102119.28;;;8.02;100.00
3132;BME280;62090;52.330;9.104;2024-01-25T07:47:50;102076.94;;;7.72;100.00
3132;BME280;62090;52.330;9.104;2024-01-25T07:50:35;102113.16;;;7.98;100.00
3132;BME280;62090;52.330;9.104;2024-01-25T07:53:05;102106.94;;;7.79;100.00
3132;BME280;62090;52.330;9.104;2024-01-25T07:55:38;102123.03;;;7.94;100.00
3132;BME280;62090;52.330;9.104;2024-01-25T07:58:08;102114.38;;;7.90;100.00
3132;BME280;62090;52.330;9.104;2024-01-25T08:00:40;102086.03;;;7.83;100.00
3132;BME280;62090;52.330;9.104;2024-01-25T08:03:10;102107.03;;;7.95;100.00
3132;BME280;62090;52.330;9.104;2024-01-25T08:05:40;102077.63;;;7.69;100.00
3132;BME280;62090;52.330;9.104;2024-01-25T08:08:17;102108.06;;;7.84;100.00
3132;BME280;62090;52.330;9.104;2024-01-25T08:10:50;102080.19;;;7.54;100.00
3132;BME280;62090;52.330;9.104;2024-01-25T08:13:21;102132.84;;;7.73;100.00
3132;BME280;62090;52.330;9.104;2024-01-25T08:15:51;102132.25;;;7.77;100.00
3132;BME280;62090;52.330;9.104;2024-01-25T08:18:22;102103.16;;;7.57;100.00
3132;BME280;62090;52.330;9.104;2024-01-25T08:20:54;102154.84;;;7.87;100.00
3132;BME280;62090;52.330;9.104;2024-01-25T08:23:25;102165.16;;;7.90;100.00
3132;BME280;62090;52.330;9.104;2024-01-25T08:25:58;102138.38;;;7.81;100.00
3132;BME280;62090;52.330;9.104;2024-01-25T08:28:28;102053.63;;;7.20;100.00
3132;BME280;62090;52.330;9.104;2024-01-25T08:30:59;102139.66;;;7.74;100.00
3132;BME280;62090;52.330;9.104;2024-01-25T08:33:29;102163.84;;;7.97;100.00
3132;BME280;62090;52.330;9.104;2024-01-25T08:36:00;102140.03;;;7.80;100.00
3132;BME280;62090;52.330;9.104;2024-01-25T08:38:31;102150.28;;;7.82;100.00
3132;BME280;62090;52.330;9.104;2024-01-25T08:41:04;102149.31;;;7.80;100.00
3132;BME280;62090;52.330;9.104;2024-01-25T08:43:34;102110.88;;;7.59;100.00
3132;BME280;62090;52.330;9.104;2024-01-25T08:46:05;102168.91;;;7.97;100.00
3132;BME280;62090;52.330;9.104;2024-01-25T08:48:35;102177.41;;;8.12;100.00
3132;BME280;62090;52.330;9.104;2024-01-25T08:51:06;102131.28;;;7.90;100.00
3132;BME280;62090;52.330;9.104;2024-01-25T08:53:37;102106.31;;;7.83;100.00
3132;BME280;62090;52.330;9.104;2024-01-25T08:56:10;102189.28;;;7.98;100.00
3132;BME280;62090;52.330;9.104;2024-01-25T08:58:41;102195.78;;;8.23;100.00
3132;BME280;62090;52.330;9.104;2024-01-25T09:01:11;102180.31;;;8.18;100.00
3132;BME280;62090;52.330;9.104;2024-01-25T09:03:41;102184.91;;;8.25;100.00
3132;BME280;62090;52.330;9.104;2024-01-25T09:06:11;102173.72;;;8.22;100.00
3132;BME280;62090;52.330;9.104;2024-01-25T09:08:42;102155.88;;;8.05;100.00
3132;BME280;62090;52.330;9.104;2024-01-25T09:11:15;102114.13;;;7.86;100.00
3132;BME280;62090;52.330;9.104;2024-01-25T09:13:46;102195.47;;;8.31;100.00
3132;BME280;62090;52.330;9.104;2024-01-25T09:16:17;102181.22;;;8.33;100.00
3132;BME280;62090;52.330;9.104;2024-01-25T09:18:47;102194.50;;;8.44;100.00
3132;BME280;62090;52.330;9.104;2024-01-25T09:21:18;102197.94;;;8.44;100.00
3132;BME280;62090;52.330;9.104;2024-01-25T09:23:48;102174.84;;;8.27;100.00
3132;BME280;62090;52.330;9.104;2024-01-25T09:26:21;102097.78;;;7.81;100.00
3132;BME280;62090;52.330;9.104;2024-01-25T09:28:51;102172.16;;;8.24;100.00
3132;BME280;62090;52.330;9.104;2024-01-25T09:31:24;102167.78;;;8.36;100.00
3132;BME280;62090;52.330;9.104;2024-01-25T09:33:54;102211.03;;;8.67;99.73
3132;BME280;62090;52.330;9.104;2024-01-25T09:36:25;102154.06;;;8.32;99.16
3132;BME280;62090;52.330;9.104;2024-01-25T09:38:55;102198.00;;;8.61;98.91
3132;BME280;62090;52.330;9.104;2024-01-25T09:41:28;102212.59;;;8.65;98.21
3132;BME280;62090;52.330;9.104;2024-01-25T09:43:59;102130.56;;;8.07;99.41
3132;BME280;62090;52.330;9.104;2024-01-25T09:46:30;102186.97;;;8.31;99.13
3132;BME280;62090;52.330;9.104;2024-01-25T09:49:00;102222.59;;;8.47;99.73
3132;BME280;62090;52.330;9.104;2024-01-25T09:51:36;102230.78;;;8.56;99.60
3132;BME280;62090;52.330;9.104;2024-01-25T09:54:07;102217.00;;;8.53;99.51
3132;BME280;62090;52.330;9.104;2024-01-25T09:56:41;102230.59;;;8.53;98.81
3132;BME280;62090;52.330;9.104;2024-01-25T09:59:11;102230.41;;;8.65;99.82
3132;BME280;62090;52.330;9.104;2024-01-25T10:01:41;102210.09;;;8.50;98.68
3132;BME280;62090;52.330;9.104;2024-01-25T10:04:11;102218.59;;;8.51;99.16
3132;BME280;62090;52.330;9.104;2024-01-25T10:06:42;102220.59;;;8.56;99.75
3132;BME280;62090;52.330;9.104;2024-01-25T10:09:13;102242.84;;;8.60;98.61
3132;BME280;62090;52.330;9.104;2024-01-25T10:11:44;102241.00;;;8.58;98.55
3132;BME280;62090;52.330;9.104;2024-01-25T10:14:29;102169.69;;;8.11;99.82
3132;BME280;62090;52.330;9.104;2024-01-25T10:17:00;102232.72;;;8.45;98.91
3132;BME280;62090;52.330;9.104;2024-01-25T10:19:31;102229.81;;;8.39;99.41
3132;BME280;62090;52.330;9.104;2024-01-25T10:22:05;102210.78;;;8.47;100.00
3132;BME280;62090;52.330;9.104;2024-01-25T10:24:37;102251.28;;;8.90;99.49
3132;BME280;62090;52.330;9.104;2024-01-25T10:27:10;102224.59;;;8.82;98.33
3132;BME280;62090;52.330;9.104;2024-01-25T10:29:40;102258.38;;;8.96;96.83
3132;BME280;62090;52.330;9.104;2024-01-25T10:32:12;102260.16;;;8.97;97.16
3132;BME280;62090;52.330;9.104;2024-01-25T10:34:43;102253.94;;;8.92;96.95
3132;BME280;62090;52.330;9.104;2024-01-25T10:37:15;102246.06;;;8.87;97.83
3132;BME280;62090;52.330;9.104;2024-01-25T10:39:47;102225.38;;;8.81;97.65
3132;BME280;62090;52.330;9.104;2024-01-25T10:42:28;102220.97;;;8.78;96.21
3132;BME280;62090;52.330;9.104;2024-01-25T10:44:59;102245.09;;;8.85;96.68
3132;BME280;62090;52.330;9.104;2024-01-25T10:47:29;102000.94;;;7.29;97.71
3132;BME280;62090;52.330;9.104;2024-01-25T10:50:04;102245.00;;;8.83;98.76
3132;BME280;62090;52.330;9.104;2024-01-25T10:52:37;102241.13;;;8.90;97.78
3132;BME280;62090;52.330;9.104;2024-01-25T10:55:09;102183.09;;;8.67;97.77
3132;BME280;62090;52.330;9.104;2024-01-25T10:57:45;102229.88;;;9.01;97.28
3132;BME280;62090;52.330;9.104;2024-01-25T11:00:16;102229.19;;;8.89;96.69
3132;BME280;62090;52.330;9.104;2024-01-25T11:02:46;102249.59;;;9.05;96.49
3132;BME280;62090;52.330;9.104;2024-01-25T11:05:17;102237.16;;;8.95;96.84
3132;BME280;62090;52.330;9.104;2024-01-25T11:07:49;102249.69;;;9.07;97.10
3132;BME280;62090;52.330;9.104;2024-01-25T11:10:21;102229.25;;;9.05;96.62
3132;BME280;62090;52.330;9.104;2024-01-25T11:12:55;102170.78;;;8.74;96.17
3132;BME280;62090;52.330;9.104;2024-01-25T11:15:30;102201.56;;;8.95;96.13
3132;BME280;62090;52.330;9.104;2024-01-25T11:18:03;102242.09;;;9.23;96.33
3132;BME280;62090;52.330;9.104;2024-01-25T11:20:36;102222.28;;;9.17;95.22
3132;BME280;62090;52.330;9.104;2024-01-25T11:23:07;102235.97;;;9.19;94.98
3132;BME280;62090;52.330;9.104;2024-01-25T11:25:38;102207.09;;;9.03;95.17
3132;BME280;62090;52.330;9.104;2024-01-25T11:28:11;102224.38;;;9.24;94.61
3132;BME280;62090;52.330;9.104;2024-01-25T11:30:43;102225.88;;;9.37;94.43
3132;BME280;62090;52.330;9.104;2024-01-25T11:33:15;102220.47;;;9.31;94.06
3132;BME280;62090;52.330;9.104;2024-01-25T11:35:54;102155.56;;;8.90;94.15
3132;BME280;62090;52.330;9.104;2024-01-25T11:38:24;102232.72;;;9.38;93.55
3132;BME280;62090;52.330;9.104;2024-01-25T11:40:57;102225.81;;;9.36;93.14
3132;BME280;62090;52.330;9.104;2024-01-25T11:43:29;102144.19;;;8.84;92.38
3132;BME280;62090;52.330;9.104;2024-01-25T11:46:00;102241.06;;;9.52;91.70
3132;BME280;62090;52.330;9.104;2024-01-25T11:48:30;102151.22;;;9.04;91.67
3132;BME280;62090;52.330;9.104;2024-01-25T11:51:00;102195.13;;;9.49;91.44
3132;BME280;62090;52.330;9.104;2024-01-25T11:53:30;102189.81;;;9.60;90.87
3132;BME280;62090;52.330;9.104;2024-01-25T11:56:01;102109.38;;;9.14;90.16
3132;BME280;62090;52.330;9.104;2024-01-25T11:58:35;102167.03;;;9.47;90.07
3132;BME280;62090;52.330;9.104;2024-01-25T12:01:08;102170.41;;;9.30;90.82
3132;BME280;62090;52.330;9.104;2024-01-25T12:03:40;102187.81;;;9.39;91.66
3132;BME280;62090;52.330;9.104;2024-01-25T12:06:12;102202.34;;;9.41;91.61
3132;BME280;62090;52.330;9.104;2024-01-25T12:08:42;102170.53;;;9.17;90.96
3132;BME280;62090;52.330;9.104;2024-01-25T12:11:13;102194.72;;;9.41;91.00
3132;BME280;62090;52.330;9.104;2024-01-25T12:13:47;102176.59;;;9.35;90.63
3132;BME280;62090;52.330;9.104;2024-01-25T12:16:18;102168.25;;;9.38;90.97
3132;BME280;62090;52.330;9.104;2024-01-25T12:18:48;102108.53;;;9.15;89.80
3132;BME280;62090;52.330;9.104;2024-01-25T12:21:19;102191.94;;;9.53;89.54
3132;BME280;62090;52.330;9.104;2024-01-25T12:23:49;102204.97;;;9.59;88.06
3132;BME280;62090;52.330;9.104;2024-01-25T12:26:19;102175.09;;;9.22;87.96
3132;BME280;62090;52.330;9.104;2024-01-25T12:28:52;102209.75;;;9.37;89.13
3132;BME280;62090;52.330;9.104;2024-01-25T12:31:22;102177.16;;;9.13;89.47
3132;BME280;62090;52.330;9.104;2024-01-25T12:33:52;102176.94;;;9.25;90.30
3132;BME280;62090;52.330;9.104;2024-01-25T12:36:22;102184.94;;;9.32;90.64
3132;BME280;62090;52.330;9.104;2024-01-25T12:38:53;102128.72;;;8.96;92.10
3132;BME280;62090;52.330;9.104;2024-01-25T12:41:23;102200.06;;;9.62;92.43
3132;BME280;62090;52.330;9.104;2024-01-25T12:43:56;102197.66;;;9.65;92.24
3132;BME280;62090;52.330;9.104;2024-01-25T12:46:27;102198.97;;;9.57;92.78
3132;BME280;62090;52.330;9.104;2024-01-25T12:48:57;102200.53;;;9.55;92.48
3132;BME280;62090;52.330;9.104;2024-01-25T12:51:27;102179.84;;;9.49;91.08
3132;BME280;62090;52.330;9.104;2024-01-25T12:53:57;102159.59;;;9.34;90.27
3132;BME280;62090;52.330;9.104;2024-01-25T12:56:28;102177.16;;;9.46;89.66
3132;BME280;62090;52.330;9.104;2024-01-25T12:59:01;102204.81;;;9.72;89.96
3132;BME280;62090;52.330;9.104;2024-01-25T13:01:31;102204.09;;;9.74;89.84
3132;BME280;62090;52.330;9.104;2024-01-25T13:04:01;102200.09;;;9.80;89.14
3132;BME280;62090;52.330;9.104;2024-01-25T13:06:32;102201.78;;;9.79;89.90
3132;BME280;62090;52.330;9.104;2024-01-25T13:09:03;102181.69;;;9.67;90.93
3132;BME280;62090;52.330;9.104;2024-01-25T13:11:34;102197.22;;;9.90;89.41
3132;BME280;62090;52.330;9.104;2024-01-25T13:14:07;102127.22;;;9.48;88.49
3132;BME280;62090;52.330;9.104;2024-01-25T13:16:37;102121.47;;;9.52;88.57
3132;BME280;62090;52.330;9.104;2024-01-25T13:19:07;102156.50;;;9.90;88.51
3132;BME280;62090;52.330;9.104;2024-01-25T13:21:40;102186.69;;;10.16;88.11
3132;BME280;62090;52.330;9.104;2024-01-25T13:24:10;102185.34;;;10.06;87.22
3132;BME280;62090;52.330;9.104;2024-01-25T13:26:41;102196.53;;;10.10;86.58
3132;BME280;62090;52.330;9.104;2024-01-25T13:29:13;102179.94;;;10.16;86.08